Time;durP1;ratioP1;P1;durP2;ratioP2;P2;SDS_P1;SDS_P2;PMS_P1;PMS_P2;Temp;Humidity;BMP_temperature;BMP_pressure;BME280_temperature;BME280_humidity;BME280_pressure;Samples;Min_cycle;Max_cycle;Signal;HPM_P1;HPM_P2
2022/07/15 00:01:28;;;;;;;2.57;2.20;;;29.90;55.50;;;;;;5141607;27;20901;-64
2022/07/15 00:03:59;;;;;;;1.43;1.33;;;29.60;56.40;;;;;;5143334;27;20449;-66
2022/07/15 00:06:33;;;;;;;2.23;1.57;;;29.70;55.70;;;;;;5142495;27;20484;-65
2022/07/15 00:09:10;;;;;;;1.90;1.80;;;29.80;55.10;;;;;;5157675;27;20453;-65
2022/07/15 00:11:41;;;;;;;1.50;1.40;;;29.80;54.90;;;;;;5161861;27;20438;-65
2022/07/15 00:14:12;;;;;;;1.30;1.20;;;29.80;52.70;;;;;;5144215;27;20975;-65
2022/07/15 00:16:43;;;;;;;4.57;1.70;;;29.80;51.40;;;;;;5160646;27;20537;-64
2022/07/15 00:19:13;;;;;;;2.67;1.90;;;29.80;54.80;;;;;;5138218;27;20477;-64
2022/07/15 00:21:44;;;;;;;1.70;1.60;;;29.90;55.80;;;;;;5149930;27;20890;-65
2022/07/15 00:24:17;;;;;;;1.43;1.33;;;29.80;54.40;;;;;;5163362;27;20842;-65
2022/07/15 00:26:47;;;;;;;1.57;1.47;;;29.80;53.20;;;;;;5158911;27;20533;-65
2022/07/15 00:29:18;;;;;;;1.40;1.30;;;29.80;52.40;;;;;;5143026;27;20466;-65
2022/07/15 00:31:49;;;;;;;2.03;1.87;;;29.80;51.80;;;;;;5150628;27;20471;-65
2022/07/15 00:34:20;;;;;;;1.63;1.53;;;29.70;55.80;;;;;;5139375;27;20549;-65
2022/07/15 00:36:51;;;;;;;1.40;1.30;;;29.70;55.40;;;;;;5142005;27;20476;-65
2022/07/15 00:39:23;;;;;;;1.80;1.50;;;29.80;49.40;;;;;;5142722;27;20478;-66
2022/07/15 00:41:55;;;;;;;1.67;1.57;;;29.70;52.30;;;;;;5159909;27;20453;-65
2022/07/15 00:44:26;;;;;;;1.50;1.40;;;29.60;55.10;;;;;;5163636;27;20457;-66
2022/07/15 00:47:00;;;;;;;2.03;1.77;;;29.40;55.90;;;;;;5141022;27;20452;-65
2022/07/15 00:49:31;;;;;;;2.10;1.90;;;29.50;58.10;;;;;;5137590;27;21141;-65
2022/07/15 00:52:04;;;;;;;1.60;1.50;;;29.30;58.00;;;;;;5142588;27;20454;-66
2022/07/15 00:54:37;;;;;;;1.90;1.80;;;29.30;57.80;;;;;;5163481;27;20440;-65
2022/07/15 00:57:08;;;;;;;1.80;1.70;;;29.30;59.00;;;;;;5163441;27;20442;-65
2022/07/15 00:59:40;;;;;;;2.17;1.70;;;29.40;57.90;;;;;;5162976;27;20497;-66
2022/07/15 01:02:11;;;;;;;1.83;1.73;;;29.30;56.90;;;;;;5164642;27;20661;-66
2022/07/15 01:04:45;;;;;;;2.00;1.83;;;29.20;58.60;;;;;;5141132;27;20470;-66
2022/07/15 01:07:17;;;;;;;1.70;1.60;;;29.30;55.20;;;;;;5145914;27;20459;-66
2022/07/15 01:09:49;;;;;;;1.30;1.20;;;29.20;51.30;;;;;;5159252;27;20478;-65
2022/07/15 01:12:20;;;;;;;2.17;1.97;;;29.20;53.40;;;;;;5163914;27;20441;-65
2022/07/15 01:14:51;;;;;;;1.70;1.60;;;29.20;53.80;;;;;;5146680;27;21135;-65
2022/07/15 01:17:22;;;;;;;2.00;1.87;;;29.10;56.30;;;;;;5146387;27;20801;-66
2022/07/15 01:19:53;;;;;;;1.87;1.63;;;29.20;55.90;;;;;;5146338;27;20483;-65
2022/07/15 01:22:27;;;;;;;2.33;1.93;;;29.20;57.10;;;;;;5146978;27;20468;-65
2022/07/15 01:24:58;;;;;;;1.57;1.47;;;29.10;57.30;;;;;;5146343;27;20430;-65
2022/07/15 01:27:29;;;;;;;2.60;1.83;;;29.00;56.00;;;;;;5146496;27;20476;-65
2022/07/15 01:30:00;;;;;;;1.60;1.50;;;29.00;58.40;;;;;;5146147;27;20458;-65
2022/07/15 01:32:31;;;;;;;1.80;1.70;;;28.90;59.10;;;;;;5149176;27;20451;-65
2022/07/15 01:35:02;;;;;;;1.70;1.60;;;28.90;56.50;;;;;;5166043;27;20467;-65
2022/07/15 01:37:34;;;;;;;1.90;1.80;;;28.80;57.90;;;;;;5160712;27;20443;-64
2022/07/15 01:40:07;;;;;;;2.03;1.83;;;28.80;57.80;;;;;;5154041;27;20492;-65
2022/07/15 01:42:38;;;;;;;1.67;1.57;;;28.70;56.90;;;;;;5161225;27;20446;-65
2022/07/15 01:45:10;;;;;;;2.20;2.10;;;28.50;57.70;;;;;;5155437;27;20449;-65
2022/07/15 01:47:44;;;;;;;3.47;2.00;;;28.40;58.40;;;;;;5137253;27;20571;-65
2022/07/15 01:50:14;;;;;;;2.00;1.80;;;28.40;59.60;;;;;;5143070;27;20453;-65
2022/07/15 01:52:47;;;;;;;1.80;1.70;;;28.40;60.00;;;;;;5151367;27;20488;-65
2022/07/15 01:55:18;;;;;;;1.97;1.87;;;28.30;61.20;;;;;;5165873;27;20441;-65
2022/07/15 01:57:48;;;;;;;2.10;2.00;;;28.30;61.10;;;;;;5166269;27;20437;-65
2022/07/15 02:00:20;;;;;;;2.40;2.20;;;28.30;62.70;;;;;;5165546;27;20582;-64
2022/07/15 02:02:51;;;;;;;1.77;1.67;;;28.20;62.70;;;;;;5159874;27;20537;-64
2022/07/15 02:05:22;;;;;;;1.90;1.80;;;28.10;64.20;;;;;;5158276;27;20450;-64
2022/07/15 02:07:55;;;;;;;1.53;1.43;;;28.10;63.80;;;;;;5166492;27;20518;-65
2022/07/15 02:10:39;;;;;;;1.77;1.67;;;28.10;64.10;;;;;;5146908;27;20459;-64
2022/07/15 02:13:10;;;;;;;1.70;1.60;;;28.00;65.10;;;;;;5158141;27;20561;-66
2022/07/15 02:15:41;;;;;;;2.20;2.00;;;27.90;63.70;;;;;;5145240;27;20470;-65
2022/07/15 02:18:14;;;;;;;1.60;1.50;;;27.90;63.10;;;;;;5145485;27;20529;-67
2022/07/15 02:20:45;;;;;;;1.60;1.50;;;27.90;63.20;;;;;;5128831;27;20479;-65
2022/07/15 02:23:20;;;;;;;1.73;1.63;;;27.80;62.10;;;;;;5154208;27;20447;-65
2022/07/15 02:25:57;;;;;;;1.47;1.37;;;27.70;61.50;;;;;;5154935;27;20440;-66
2022/07/15 02:28:28;;;;;;;2.20;1.90;;;27.50;62.70;;;;;;5141951;27;20449;-65
2022/07/15 02:31:07;;;;;;;2.10;1.90;;;27.40;62.40;;;;;;5146747;27;20456;-65
2022/07/15 02:33:38;;;;;;;2.07;1.97;;;27.40;63.20;;;;;;5164194;27;20459;-66
2022/07/15 02:36:10;;;;;;;1.83;1.73;;;27.30;62.50;;;;;;5154688;27;20460;-65
2022/07/15 02:38:42;;;;;;;2.00;1.87;;;27.20;64.20;;;;;;5165524;27;20454;-66
2022/07/15 02:41:13;;;;;;;1.90;1.80;;;27.20;64.90;;;;;;5127719;27;20540;-66
2022/07/15 02:43:45;;;;;;;2.00;1.90;;;27.10;65.50;;;;;;5152954;27;20436;-66
2022/07/15 02:46:16;;;;;;;2.00;1.90;;;27.00;66.50;;;;;;5165192;27;20785;-66
2022/07/15 02:48:46;;;;;;;1.80;1.70;;;27.00;65.50;;;;;;5147378;27;20463;-66
2022/07/15 02:51:17;;;;;;;1.83;1.73;;;26.90;65.20;;;;;;5143613;27;20468;-64
2022/07/15 02:53:50;;;;;;;1.50;1.40;;;26.80;64.60;;;;;;5152726;27;20448;-64
2022/07/15 02:56:21;;;;;;;1.50;1.40;;;26.80;62.90;;;;;;5165055;27;20940;-64
2022/07/15 02:58:52;;;;;;;1.33;1.23;;;26.70;62.90;;;;;;5165780;27;20456;-66
2022/07/15 03:01:26;;;;;;;1.67;1.57;;;26.70;61.50;;;;;;5126992;27;20500;-64
2022/07/15 03:04:12;;;;;;;2.10;1.90;;;26.60;62.00;;;;;;5150067;27;20456;-65
2022/07/15 03:06:43;;;;;;;1.47;1.37;;;26.50;61.80;;;;;;5164122;27;20439;-65
2022/07/15 03:09:15;;;;;;;1.80;1.70;;;26.50;62.40;;;;;;5160434;27;20938;-64
2022/07/15 03:11:46;;;;;;;1.57;1.47;;;26.40;62.30;;;;;;5162273;27;21256;-65
2022/07/15 03:14:17;;;;;;;1.40;1.30;;;26.30;63.50;;;;;;5155993;27;20439;-65
2022/07/15 03:16:49;;;;;;;1.53;1.43;;;26.20;64.10;;;;;;5145723;27;20448;-65
2022/07/15 03:19:21;;;;;;;1.30;1.20;;;26.10;63.60;;;;;;5144458;27;20442;-65
2022/07/15 03:21:52;;;;;;;1.63;1.50;;;26.10;62.30;;;;;;5154914;27;20939;-65
2022/07/15 03:24:28;;;;;;;1.60;1.50;;;26.00;62.90;;;;;;5163907;27;20489;-65
2022/07/15 03:27:00;;;;;;;1.30;1.17;;;25.90;64.20;;;;;;5127314;27;20449;-65
2022/07/15 03:29:30;;;;;;;1.60;1.50;;;25.80;64.50;;;;;;5144230;27;20439;-65
2022/07/15 03:32:07;;;;;;;2.10;1.87;;;25.70;65.40;;;;;;5156511;27;20457;-65
2022/07/15 03:34:40;;;;;;;1.70;1.60;;;25.70;65.80;;;;;;5163783;27;20463;-65
2022/07/15 03:37:11;;;;;;;1.40;1.30;;;25.60;66.40;;;;;;5150510;27;20814;-65
2022/07/15 03:39:43;;;;;;;1.77;1.67;;;25.50;68.20;;;;;;5158216;27;20480;-65
2022/07/15 03:42:14;;;;;;;1.80;1.70;;;25.30;69.50;;;;;;5149115;27;20541;-66
2022/07/15 03:44:45;;;;;;;1.67;1.57;;;25.30;70.30;;;;;;5143922;27;20468;-66
2022/07/15 03:47:16;;;;;;;2.70;1.83;;;25.20;71.00;;;;;;5138908;27;20934;-66
2022/07/15 03:49:47;;;;;;;1.60;1.50;;;25.10;71.60;;;;;;5149286;27;20529;-66
2022/07/15 03:52:27;;;;;;;1.70;1.60;;;25.00;72.40;;;;;;5147009;27;20450;-65
2022/07/15 03:55:01;;;;;;;1.80;1.70;;;24.90;72.80;;;;;;5143729;27;20516;-66
2022/07/15 03:57:35;;;;;;;2.00;1.80;;;24.80;73.70;;;;;;5143923;27;20449;-64
2022/07/15 04:00:10;;;;;;;1.60;1.50;;;24.70;73.20;;;;;;5143315;27;20449;-64
2022/07/15 04:02:44;;;;;;;1.67;1.57;;;24.60;73.80;;;;;;5161307;27;20518;-66
2022/07/15 04:05:17;;;;;;;1.80;1.70;;;24.50;74.00;;;;;;5146002;27;20466;-65
2022/07/15 04:07:48;;;;;;;1.77;1.67;;;24.40;74.60;;;;;;5144080;27;20459;-64
2022/07/15 04:10:21;;;;;;;1.90;1.80;;;24.40;74.20;;;;;;5156469;27;20535;-65
2022/07/15 04:12:51;;;;;;;1.80;1.70;;;24.30;73.90;;;;;;5157748;27;20455;-65
2022/07/15 04:15:22;;;;;;;1.93;1.80;;;24.30;74.00;;;;;;5146500;27;20448;-65
2022/07/15 04:17:53;;;;;;;2.30;1.80;;;24.20;74.40;;;;;;5147416;27;20524;-64
2022/07/15 04:20:24;;;;;;;2.23;1.83;;;24.10;74.20;;;;;;5143578;27;21019;-65
2022/07/15 04:22:55;;;;;;;1.83;1.73;;;24.00;74.00;;;;;;5161706;27;20479;-65
2022/07/15 04:25:30;;;;;;;2.07;1.90;;;23.90;74.60;;;;;;5161098;27;20529;-65
2022/07/15 04:28:00;;;;;;;1.90;1.80;;;23.90;74.90;;;;;;5148982;27;20448;-65
2022/07/15 04:30:34;;;;;;;2.50;2.30;;;23.80;75.30;;;;;;5151905;27;20444;-65
2022/07/15 04:33:07;;;;;;;2.27;2.07;;;23.70;75.80;;;;;;5145707;27;20447;-65
2022/07/15 04:35:41;;;;;;;2.20;2.00;;;23.60;76.10;;;;;;5163310;27;20451;-65
2022/07/15 04:38:12;;;;;;;2.00;1.80;;;23.40;77.00;;;;;;5167938;27;20462;-65
2022/07/15 04:40:45;;;;;;;2.90;1.93;;;23.20;76.80;;;;;;5167454;27;21014;-65
2022/07/15 04:43:16;;;;;;;1.50;1.40;;;23.10;76.70;;;;;;5148448;27;20480;-65
2022/07/15 04:45:47;;;;;;;2.50;2.07;;;23.10;76.90;;;;;;5163068;27;20519;-65
2022/07/15 04:51:06;;;;;;;2.90;2.03;;;22.90;78.20;;;;;;5166973;27;20511;-65
2022/07/15 04:53:37;;;;;;;2.30;1.97;;;22.80;79.60;;;;;;5150719;27;20551;-65
2022/07/15 04:56:09;;;;;;;2.40;2.07;;;22.60;80.30;;;;;;5166910;27;20451;-65
2022/07/15 04:58:40;;;;;;;3.23;1.90;;;22.50;81.00;;;;;;5167177;27;20977;-65
2022/07/15 05:01:11;;;;;;;2.30;2.10;;;22.50;81.00;;;;;;5161491;27;20473;-66
2022/07/15 05:03:43;;;;;;;2.20;2.10;;;22.40;81.20;;;;;;5165084;27;20475;-65
2022/07/15 05:06:14;;;;;;;2.20;2.00;;;22.30;81.80;;;;;;5166080;27;20465;-65
2022/07/15 05:08:45;;;;;;;2.63;2.00;;;22.20;82.60;;;;;;5167282;27;20499;-65
2022/07/15 05:11:17;;;;;;;1.60;1.40;;;22.20;82.80;;;;;;5167213;27;20451;-65
2022/07/15 05:13:48;;;;;;;3.00;2.80;;;22.10;83.30;;;;;;5148555;27;20459;-65
2022/07/15 05:16:19;;;;;;;2.20;2.00;;;22.00;84.30;;;;;;5139930;27;20516;-65
2022/07/15 05:18:51;;;;;;;1.70;1.60;;;21.90;84.60;;;;;;5167208;27;20551;-65
2022/07/15 05:21:22;;;;;;;2.20;2.00;;;21.70;85.60;;;;;;5159804;27;20448;-65
2022/07/15 05:23:55;;;;;;;2.50;2.27;;;21.70;86.30;;;;;;5147309;27;20539;-65
2022/07/15 05:26:47;;;;;;;2.27;2.07;;;21.60;87.10;;;;;;5150081;27;20478;-65
2022/07/15 05:29:21;;;;;;;2.53;1.90;;;21.50;87.50;;;;;;5166889;27;20452;-65
2022/07/15 05:31:52;;;;;;;2.00;1.87;;;21.50;87.30;;;;;;5160258;27;20547;-65
2022/07/15 05:34:23;;;;;;;2.20;1.90;;;21.50;87.20;;;;;;5166750;27;20448;-65
2022/07/15 05:36:54;;;;;;;2.07;1.90;;;21.40;87.60;;;;;;5166140;27;20436;-65
2022/07/15 05:39:24;;;;;;;2.00;1.90;;;21.30;87.80;;;;;;5165919;27;20452;-65
2022/07/15 05:41:58;;;;;;;2.93;1.70;;;21.20;88.50;;;;;;5133421;27;20459;-65
2022/07/15 05:44:29;;;;;;;2.10;1.90;;;21.20;88.70;;;;;;5157567;27;20452;-65
2022/07/15 05:47:02;;;;;;;2.33;2.13;;;21.10;89.70;;;;;;5162313;27;20452;-64
2022/07/15 05:49:33;;;;;;;1.90;1.80;;;21.00;90.30;;;;;;5146022;27;20580;-65
2022/07/15 05:52:11;;;;;;;2.20;2.10;;;20.90;91.00;;;;;;5148681;27;20432;-65
2022/07/15 05:54:42;;;;;;;2.63;2.20;;;20.70;91.40;;;;;;5166303;27;20456;-65
2022/07/15 05:57:15;;;;;;;2.57;2.37;;;20.70;91.90;;;;;;5166094;27;20462;-64
2022/07/15 05:59:46;;;;;;;3.07;2.50;;;20.60;92.20;;;;;;5166751;27;20547;-65
2022/07/15 06:02:16;;;;;;;2.83;2.40;;;20.50;92.30;;;;;;5164028;27;20484;-64
2022/07/15 06:04:47;;;;;;;4.20;3.20;;;20.40;92.50;;;;;;5145964;27;20422;-63
2022/07/15 06:07:18;;;;;;;2.40;2.20;;;20.40;93.10;;;;;;5145754;27;20416;-64
2022/07/15 06:09:50;;;;;;;2.53;2.33;;;20.40;93.30;;;;;;5132845;27;20456;-64
2022/07/15 06:12:22;;;;;;;2.10;1.90;;;20.30;93.40;;;;;;5160939;27;20943;-65
2022/07/15 06:14:53;;;;;;;4.30;2.63;;;20.20;94.10;;;;;;5146929;27;20426;-65
2022/07/15 06:17:24;;;;;;;2.70;2.20;;;20.10;94.70;;;;;;5146488;27;20479;-64
2022/07/15 06:19:55;;;;;;;1.60;1.50;;;20.10;95.00;;;;;;5145338;27;20412;-65
2022/07/15 06:22:25;;;;;;;2.33;2.17;;;20.00;95.60;;;;;;5154987;27;20468;-65
2022/07/15 06:24:56;;;;;;;2.17;2.00;;;19.90;95.70;;;;;;5145311;27;20456;-65
2022/07/15 06:27:30;;;;;;;2.43;1.73;;;19.90;96.30;;;;;;5145045;27;20448;-65
2022/07/15 06:30:01;;;;;;;3.17;2.20;;;19.80;96.50;;;;;;5145185;27;20452;-65
2022/07/15 06:32:32;;;;;;;2.50;2.27;;;19.80;96.70;;;;;;5150271;27;20458;-65
2022/07/15 06:35:04;;;;;;;1.83;1.73;;;19.80;97.10;;;;;;5163859;27;20425;-65
2022/07/15 06:37:34;;;;;;;1.60;1.50;;;19.70;97.50;;;;;;5149144;27;20529;-65
2022/07/15 06:40:06;;;;;;;3.13;1.80;;;19.60;97.50;;;;;;5144901;27;20460;-66
2022/07/15 06:42:39;;;;;;;2.20;2.00;;;19.50;98.20;;;;;;5150626;27;20560;-65
2022/07/15 06:45:11;;;;;;;2.33;2.00;;;19.40;98.60;;;;;;5164809;27;20467;-65
2022/07/15 06:47:42;;;;;;;2.17;1.97;;;19.40;99.50;;;;;;5158909;27;20445;-64
2022/07/15 06:50:14;;;;;;;1.90;1.80;;;19.40;99.90;;;;;;5144047;27;20438;-65
2022/07/15 06:52:44;;;;;;;2.10;1.90;;;19.30;99.90;;;;;;5146214;27;20547;-65
2022/07/15 06:55:15;;;;;;;3.40;1.90;;;19.20;99.90;;;;;;5144226;27;20453;-64
2022/07/15 06:57:48;;;;;;;2.50;2.30;;;19.20;99.90;;;;;;5144563;27;20512;-65
2022/07/15 07:00:19;;;;;;;2.97;2.43;;;19.10;99.90;;;;;;5144223;27;20463;-65
2022/07/15 07:02:49;;;;;;;2.50;2.30;;;19.00;99.90;;;;;;5151881;27;20974;-64
2022/07/15 07:05:20;;;;;;;1.70;1.60;;;19.00;99.90;;;;;;5163775;27;20556;-64
2022/07/15 07:07:51;;;;;;;2.90;1.97;;;19.00;99.90;;;;;;5165004;27;20479;-64
2022/07/15 07:10:22;;;;;;;1.93;1.67;;;19.00;99.90;;;;;;5164558;27;20444;-65
2022/07/15 07:12:56;;;;;;;1.50;1.40;;;18.90;99.90;;;;;;5161731;27;20439;-65
2022/07/15 07:15:27;;;;;;;2.50;2.30;;;18.90;99.90;;;;;;5143542;27;20507;-65
2022/07/15 07:17:58;;;;;;;2.33;2.13;;;18.80;99.90;;;;;;5148235;27;20779;-64
2022/07/15 07:20:29;;;;;;;2.80;2.43;;;18.80;99.90;;;;;;5161670;27;20429;-65
2022/07/15 07:23:00;;;;;;;2.23;2.03;;;18.70;99.90;;;;;;5160707;27;20447;-65
2022/07/15 07:25:32;;;;;;;2.37;2.17;;;18.70;99.90;;;;;;5143705;27;20463;-65
2022/07/15 07:28:05;;;;;;;2.30;2.20;;;18.60;99.90;;;;;;5145322;27;20447;-65
2022/07/15 07:30:36;;;;;;;2.10;1.90;;;18.60;99.90;;;;;;5132495;27;20499;-65
2022/07/15 07:33:07;;;;;;;1.70;1.47;;;18.60;99.90;;;;;;5143298;27;20414;-65
2022/07/15 07:35:40;;;;;;;2.17;1.97;;;18.50;99.90;;;;;;5158389;27;20462;-64
2022/07/15 07:38:11;;;;;;;2.40;2.20;;;18.50;99.90;;;;;;5143965;27;20452;-65
2022/07/15 07:40:42;;;;;;;2.63;2.00;;;18.50;99.90;;;;;;5143549;27;20438;-64
2022/07/15 07:43:14;;;;;;;1.87;1.70;;;18.40;99.90;;;;;;5155530;27;20487;-64
2022/07/15 07:45:45;;;;;;;2.37;2.13;;;18.30;99.90;;;;;;5142676;27;20420;-65
2022/07/15 07:48:16;;;;;;;2.73;1.57;;;18.30;99.90;;;;;;5143748;27;20425;-65
2022/07/15 07:50:48;;;;;;;1.90;1.73;;;18.20;99.90;;;;;;5154191;27;20494;-64
2022/07/15 07:53:19;;;;;;;1.97;1.73;;;18.10;99.90;;;;;;5158824;27;20424;-64
2022/07/15 07:55:49;;;;;;;2.50;2.27;;;18.10;99.90;;;;;;5136373;27;20928;-64
2022/07/15 07:58:22;;;;;;;2.53;2.33;;;18.00;99.90;;;;;;5156228;27;20452;-64
2022/07/15 08:00:53;;;;;;;2.03;1.87;;;18.00;99.90;;;;;;5143307;27;20727;-64
2022/07/15 08:03:24;;;;;;;2.00;1.80;;;18.00;99.90;;;;;;5143425;27;20557;-65
2022/07/15 08:05:55;;;;;;;1.97;1.77;;;18.00;99.90;;;;;;5142503;27;20427;-64
2022/07/15 08:08:26;;;;;;;2.53;2.17;;;17.80;99.90;;;;;;5143140;27;20464;-64
2022/07/15 08:10:58;;;;;;;1.80;1.70;;;17.80;99.90;;;;;;5152670;27;20479;-64
2022/07/15 08:13:30;;;;;;;4.50;2.30;;;17.80;99.90;;;;;;5157348;27;20463;-64
2022/07/15 08:16:01;;;;;;;2.83;2.10;;;17.70;99.90;;;;;;5142963;27;20424;-64
2022/07/15 08:18:38;;;;;;;2.20;2.00;;;17.70;99.90;;;;;;5144518;27;20559;-64
2022/07/15 08:21:12;;;;;;;3.73;2.13;;;17.70;99.90;;;;;;5143472;27;20438;-64
2022/07/15 08:23:43;;;;;;;2.50;2.30;;;17.60;99.90;;;;;;5150623;27;20514;-64
2022/07/15 08:26:18;;;;;;;2.00;1.90;;;17.60;99.90;;;;;;5157178;27;20447;-64
2022/07/15 08:28:51;;;;;;;2.30;2.10;;;17.50;99.90;;;;;;5143501;27;20953;-64
2022/07/15 08:31:38;;;;;;;2.37;2.17;;;17.60;99.90;;;;;;5143768;27;20434;-64
2022/07/15 08:34:09;;;;;;;2.30;1.77;;;17.50;99.90;;;;;;5163166;27;20455;-64
2022/07/15 08:36:41;;;;;;;3.03;2.20;;;17.40;99.90;;;;;;5149738;27;20430;-64
2022/07/15 08:39:13;;;;;;;2.37;2.10;;;17.40;99.90;;;;;;5143872;27;20471;-64
2022/07/15 08:41:44;;;;;;;2.37;2.17;;;17.20;99.90;;;;;;5142609;27;20513;-64
2022/07/15 08:44:16;;;;;;;2.90;2.00;;;17.20;99.90;;;;;;5143038;27;20492;-64
2022/07/15 08:46:50;;;;;;;1.70;1.60;;;17.10;99.90;;;;;;5146865;27;20423;-64
2022/07/15 08:49:23;;;;;;;2.50;2.30;;;17.20;99.90;;;;;;5143096;27;20538;-64
2022/07/15 08:51:56;;;;;;;1.97;1.77;;;17.10;99.90;;;;;;5147634;27;20546;-64
2022/07/15 08:54:30;;;;;;;1.60;1.50;;;17.00;99.90;;;;;;5142547;27;20498;-64
2022/07/15 08:57:01;;;;;;;2.90;2.10;;;17.00;99.90;;;;;;5157915;27;20454;-64
2022/07/15 08:59:33;;;;;;;2.27;2.07;;;17.00;99.90;;;;;;5161587;27;20494;-64
2022/07/15 09:02:04;;;;;;;2.30;1.97;;;16.90;99.90;;;;;;5161066;27;20510;-64
2022/07/15 09:04:35;;;;;;;2.13;1.80;;;16.80;99.90;;;;;;5158736;27;20459;-64
2022/07/15 09:07:06;;;;;;;2.30;2.10;;;16.90;99.90;;;;;;5142423;27;20421;-64
2022/07/15 09:09:37;;;;;;;2.30;2.10;;;16.80;99.90;;;;;;5143638;27;20445;-64
2022/07/15 09:12:09;;;;;;;2.47;1.97;;;16.70;99.90;;;;;;5142724;27;20471;-64
2022/07/15 09:14:46;;;;;;;2.20;1.70;;;16.70;99.90;;;;;;5142991;27;20522;-64
2022/07/15 09:17:25;;;;;;;2.10;1.87;;;16.70;99.90;;;;;;5144927;27;20434;-64
2022/07/15 09:20:06;;;;;;;2.20;2.00;;;16.70;99.90;;;;;;5158780;27;20424;-64
2022/07/15 09:22:50;;;;;;;2.03;1.90;;;16.70;99.90;;;;;;5149471;27;20475;-64
2022/07/15 09:25:21;;;;;;;2.33;2.13;;;16.70;99.90;;;;;;5157006;27;20476;-64
2022/07/15 09:27:53;;;;;;;2.03;1.77;;;16.70;99.90;;;;;;5160626;27;20410;-64
2022/07/15 09:36:13;;;;;;;1.90;1.47;;;16.50;99.90;;;;;;5144448;27;20984;-63
2022/07/15 09:38:46;;;;;;;2.50;2.30;;;16.50;99.90;;;;;;5129660;27;20442;-63
2022/07/15 09:41:29;;;;;;;2.30;2.10;;;16.50;99.90;;;;;;5154747;27;20422;-64
2022/07/15 09:44:03;;;;;;;2.30;2.10;;;16.50;99.90;;;;;;5167184;27;20454;-64
2022/07/15 09:46:45;;;;;;;2.10;1.93;;;16.40;99.90;;;;;;5166403;27;20829;-64
2022/07/15 09:49:17;;;;;;;3.17;2.20;;;16.40;99.90;;;;;;5156264;27;20523;-64
2022/07/15 09:51:51;;;;;;;2.33;1.77;;;16.30;99.90;;;;;;5145953;27;20448;-64
2022/07/15 09:54:22;;;;;;;1.90;1.80;;;16.30;99.90;;;;;;5146375;27;20562;-64
2022/07/15 09:56:54;;;;;;;3.43;2.60;;;16.30;99.90;;;;;;5137981;27;20858;-64
2022/07/15 09:59:24;;;;;;;2.07;1.90;;;16.20;99.90;;;;;;5146327;27;20483;-64
2022/07/15 10:01:58;;;;;;;2.67;1.87;;;16.20;99.90;;;;;;5155447;27;20471;-64
2022/07/15 10:04:30;;;;;;;2.00;1.77;;;16.10;99.90;;;;;;5161592;27;20470;-63
2022/07/15 10:07:02;;;;;;;2.80;1.73;;;16.10;99.90;;;;;;5128860;27;20443;-64
2022/07/15 10:09:54;;;;;;;2.50;2.20;;;16.10;99.90;;;;;;5158491;27;20419;-64
2022/07/15 10:12:47;;;;;;;2.33;2.13;;;16.00;99.90;;;;;;5147785;27;20435;-64
2022/07/15 10:15:29;;;;;;;2.10;1.90;;;16.00;99.90;;;;;;5145621;27;20470;-64
2022/07/15 10:18:31;;;;;;;3.73;2.07;;;15.90;99.90;;;;;;5155265;27;20427;-64
2022/07/15 10:21:10;;;;;;;1.90;1.80;;;15.90;99.90;;;;;;5153864;27;20504;-64
2022/07/15 10:24:24;;;;;;;2.10;1.73;;;15.90;99.90;;;;;;5166003;27;20466;-64
2022/07/15 10:27:16;;;;;;;2.53;1.80;;;15.80;99.90;;;;;;5156771;27;20519;-64
2022/07/15 10:29:48;;;;;;;2.13;1.87;;;15.80;99.90;;;;;;5141434;27;20449;-64
2022/07/15 10:32:18;;;;;;;2.00;1.90;;;15.70;99.90;;;;;;5146086;27;20407;-64
2022/07/15 10:34:51;;;;;;;2.63;1.87;;;15.60;99.90;;;;;;5145472;27;20427;-64
2022/07/15 10:37:22;;;;;;;1.70;1.60;;;15.70;99.90;;;;;;5150967;27;20455;-64
2022/07/15 10:40:05;;;;;;;2.43;2.23;;;15.70;99.90;;;;;;5145586;27;20449;-64
2022/07/15 10:43:01;;;;;;;2.30;1.90;;;15.70;99.90;;;;;;5158397;27;20452;-64
2022/07/15 10:45:31;;;;;;;1.80;1.70;;;15.70;99.90;;;;;;5148142;27;20515;-64
2022/07/15 10:48:27;;;;;;;2.10;1.90;;;15.50;99.90;;;;;;5144745;27;20427;-64
2022/07/15 10:50:59;;;;;;;2.40;2.20;;;15.50;99.90;;;;;;5144343;27;20434;-64
2022/07/15 10:53:30;;;;;;;1.97;1.87;;;15.50;99.90;;;;;;5144530;27;20448;-64
2022/07/15 10:56:29;;;;;;;2.33;2.13;;;15.40;99.90;;;;;;5144439;27;20460;-64
2022/07/15 10:59:19;;;;;;;4.73;2.37;;;15.30;99.90;;;;;;5165253;27;20535;-64
2022/07/15 11:01:51;;;;;;;2.40;2.20;;;15.30;99.90;;;;;;5162333;27;21187;-64
2022/07/15 11:04:33;;;;;;;1.97;1.80;;;15.30;99.90;;;;;;5155163;27;20433;-64
2022/07/15 11:07:28;;;;;;;2.17;1.97;;;15.30;99.90;;;;;;5164192;27;20961;-64
2022/07/15 11:10:14;;;;;;;2.50;2.10;;;15.20;99.90;;;;;;5164914;27;20447;-64
2022/07/15 11:13:02;;;;;;;2.77;2.27;;;15.20;99.90;;;;;;5161133;27;20422;-64
2022/07/15 11:15:34;;;;;;;2.20;2.10;;;15.30;99.90;;;;;;5163992;27;20458;-64
2022/07/15 11:18:05;;;;;;;2.00;1.87;;;15.20;99.90;;;;;;5162242;27;20444;-64
2022/07/15 11:20:42;;;;;;;2.30;2.10;;;15.10;99.90;;;;;;5162624;27;20410;-64
2022/07/15 11:23:17;;;;;;;2.27;2.07;;;15.10;99.90;;;;;;5146884;27;20444;-64
2022/07/15 11:25:50;;;;;;;1.70;1.60;;;15.10;99.90;;;;;;5144092;27;20488;-64
2022/07/15 11:28:21;;;;;;;1.80;1.70;;;15.00;99.90;;;;;;5161024;27;20431;-65
2022/07/15 11:30:54;;;;;;;2.70;2.00;;;15.00;99.90;;;;;;5151294;27;20458;-65
2022/07/15 11:33:27;;;;;;;2.10;1.90;;;14.90;99.90;;;;;;5149128;27;20445;-64
2022/07/15 11:35:59;;;;;;;2.73;2.20;;;14.90;99.90;;;;;;5159480;27;20535;-64
2022/07/15 11:38:33;;;;;;;2.80;2.00;;;15.00;99.90;;;;;;5127105;27;21317;-64
2022/07/15 11:46:49;;;;;;;2.00;1.80;;;14.70;99.90;;;;;;5143277;27;20502;-64
2022/07/15 11:49:29;;;;;;;2.50;2.10;;;14.70;99.90;;;;;;5143884;27;20474;-64
2022/07/15 11:52:01;;;;;;;3.83;2.57;;;14.80;99.90;;;;;;5142685;27;20515;-64
2022/07/15 11:54:36;;;;;;;2.30;1.93;;;14.70;99.90;;;;;;5143714;27;20450;-64
2022/07/15 11:57:08;;;;;;;2.07;1.83;;;14.70;99.90;;;;;;5144483;27;20968;-63
2022/07/15 11:59:39;;;;;;;2.20;2.00;;;14.60;99.90;;;;;;5164149;27;20462;-66
2022/07/15 12:02:11;;;;;;;1.60;1.50;;;14.60;99.90;;;;;;5163625;27;20480;-65
2022/07/15 12:04:45;;;;;;;2.70;2.20;;;14.50;99.90;;;;;;5142569;27;20927;-65
2022/07/15 12:07:16;;;;;;;2.57;2.37;;;14.50;99.90;;;;;;5145049;27;20495;-65
2022/07/15 12:09:51;;;;;;;5.17;2.10;;;14.50;99.90;;;;;;5164049;27;20450;-65
2022/07/15 12:12:22;;;;;;;2.10;1.80;;;14.60;99.90;;;;;;5163473;27;20443;-65
2022/07/15 12:14:53;;;;;;;2.60;1.63;;;14.50;99.90;;;;;;5163320;27;20543;-64
2022/07/15 12:17:24;;;;;;;2.40;2.20;;;14.40;99.90;;;;;;5162744;27;20414;-65
2022/07/15 12:19:56;;;;;;;3.40;2.77;;;14.40;99.90;;;;;;5163591;27;20477;-64
2022/07/15 12:22:26;;;;;;;2.47;2.27;;;14.40;99.90;;;;;;5145746;27;20450;-65
2022/07/15 12:24:59;;;;;;;2.80;2.13;;;14.40;99.90;;;;;;5163869;27;20432;-65
2022/07/15 12:27:37;;;;;;;1.80;1.70;;;14.40;99.90;;;;;;5143098;27;20427;-65
2022/07/15 12:30:10;;;;;;;4.67;2.20;;;14.30;99.90;;;;;;5144343;27;20446;-64
2022/07/15 12:32:41;;;;;;;1.57;1.47;;;14.30;99.90;;;;;;5143373;27;20843;-65
2022/07/15 12:35:12;;;;;;;2.60;2.10;;;14.30;99.90;;;;;;5154395;27;20619;-65
2022/07/15 12:37:50;;;;;;;2.67;1.77;;;14.30;99.90;;;;;;5143019;27;20455;-65
2022/07/15 12:40:26;;;;;;;2.27;1.83;;;14.30;99.90;;;;;;5142749;27;20449;-65
2022/07/15 12:42:56;;;;;;;2.50;2.17;;;14.30;99.90;;;;;;5143156;27;20462;-64
2022/07/15 12:45:29;;;;;;;2.60;2.40;;;14.20;99.90;;;;;;5144300;27;20538;-64
2022/07/15 12:48:05;;;;;;;3.73;1.77;;;14.20;99.90;;;;;;5143008;27;20460;-64
2022/07/15 12:50:37;;;;;;;2.70;2.30;;;14.30;99.90;;;;;;5142202;27;20515;-65
2022/07/15 12:53:08;;;;;;;3.20;2.63;;;14.20;99.90;;;;;;5142918;27;20506;-64
2022/07/15 12:55:47;;;;;;;2.20;2.00;;;14.20;99.90;;;;;;5144470;27;20424;-65
2022/07/15 12:58:24;;;;;;;2.50;2.30;;;14.20;99.90;;;;;;5146796;27;20506;-65
2022/07/15 13:01:04;;;;;;;3.37;2.33;;;14.10;99.90;;;;;;5147016;27;20499;-64
2022/07/15 13:03:36;;;;;;;3.50;2.37;;;14.10;99.90;;;;;;5152966;27;20455;-65
2022/07/15 13:06:07;;;;;;;2.60;2.40;;;14.10;99.90;;;;;;5147750;27;20490;-64
2022/07/15 13:08:40;;;;;;;2.10;1.90;;;14.10;99.90;;;;;;5167421;27;20499;-63
2022/07/15 13:11:12;;;;;;;2.97;2.67;;;14.10;99.90;;;;;;5167065;27;20458;-64
2022/07/15 13:13:43;;;;;;;2.77;2.40;;;14.00;99.90;;;;;;5167022;27;20421;-64
2022/07/15 13:16:14;;;;;;;2.60;2.40;;;14.10;99.90;;;;;;5160717;27;20780;-63
2022/07/15 13:18:45;;;;;;;2.73;2.30;;;14.10;99.90;;;;;;5165576;27;20439;-64
2022/07/15 13:21:16;;;;;;;1.80;1.67;;;14.20;99.90;;;;;;5164643;27;20456;-64
2022/07/15 13:23:52;;;;;;;2.00;1.80;;;14.20;99.90;;;;;;5165737;27;20465;-64
2022/07/15 13:26:24;;;;;;;2.97;1.60;;;14.20;99.90;;;;;;5166236;27;20482;-64
2022/07/15 13:28:55;;;;;;;3.50;2.50;;;14.30;99.90;;;;;;5166648;27;20452;-64
2022/07/15 13:31:26;;;;;;;3.03;2.27;;;14.30;99.90;;;;;;5157011;27;20445;-63
2022/07/15 13:33:57;;;;;;;2.30;2.10;;;14.30;99.90;;;;;;5146466;27;20454;-63